createdAt,value
2023-04-01T00:01:17.366Z,3.03
2023-04-01T00:03:44.306Z,2.22
2023-04-01T00:06:14.424Z,4.53
2023-04-01T00:08:41.046Z,2.47
2023-04-01T00:11:07.388Z,3.70
2023-04-01T00:13:33.837Z,2.42
2023-04-01T00:16:03.108Z,3.33
2023-04-01T00:18:31.279Z,2.45
2023-04-01T00:21:00.888Z,4.82
2023-04-01T00:23:27.412Z,3.30
2023-04-01T00:25:53.980Z,2.67
2023-04-01T00:28:21.223Z,3.25
2023-04-01T00:30:48.039Z,3.05
2023-04-01T00:33:14.468Z,3.42
2023-04-01T00:35:41.360Z,3.33
2023-04-01T00:38:07.761Z,2.38
2023-04-01T00:40:45.644Z,3.00
2023-04-01T00:43:14.881Z,2.72
2023-04-01T00:45:43.730Z,1.92
2023-04-01T00:48:23.307Z,2.28
2023-04-01T00:50:54.841Z,3.88
2023-04-01T00:53:22.492Z,3.70
2023-04-01T00:55:55.087Z,4.28
2023-04-01T00:58:24.654Z,3.63
2023-04-01T01:00:52.407Z,3.47
2023-04-01T01:03:19.102Z,4.53
2023-04-01T01:05:53.926Z,4.30
2023-04-01T01:08:56.472Z,2.72
2023-04-01T01:12:01.599Z,3.70
2023-04-01T01:14:40.263Z,3.33
2023-04-01T01:17:33.260Z,3.53
2023-04-01T01:20:25.402Z,3.35
2023-04-01T01:23:19.696Z,4.85
2023-04-01T01:26:30.732Z,3.22
2023-04-01T01:29:21.520Z,4.30
2023-04-01T01:32:03.049Z,3.63
2023-04-01T01:34:44.796Z,4.63
2023-04-01T01:37:15.870Z,6.22
2023-04-01T01:39:45.987Z,4.68
2023-04-01T01:42:16.182Z,3.60
2023-04-01T01:44:45.476Z,4.10
2023-04-01T01:49:41.825Z,3.40
2023-04-01T01:54:34.790Z,3.90
2023-04-01T01:57:07.955Z,4.40
2023-04-01T01:59:38.433Z,4.20
2023-04-01T02:02:08.880Z,2.47
2023-04-01T02:04:40.249Z,4.30
2023-04-01T02:07:12.867Z,4.30
2023-04-01T02:09:40.174Z,3.25
2023-04-01T02:12:09.584Z,4.40
2023-04-01T02:15:11.711Z,3.90
2023-04-01T02:17:43.296Z,4.63
2023-04-01T02:20:16.421Z,4.78
2023-04-01T02:22:48.754Z,3.67
2023-04-01T02:25:21.332Z,2.65
2023-04-01T02:27:47.960Z,2.28
2023-04-01T02:30:16.237Z,4.15
2023-04-01T02:32:43.607Z,3.72
2023-04-01T02:35:12.120Z,2.65
2023-04-01T02:37:42.815Z,5.75
2023-04-01T02:40:12.932Z,3.22
2023-04-01T02:42:39.486Z,6.45
2023-04-01T02:45:06.746Z,3.03
2023-04-01T02:47:33.462Z,4.57
2023-04-01T02:49:59.946Z,2.65
2023-04-01T02:52:27.185Z,4.13
2023-04-01T02:54:54.288Z,3.50
2023-04-01T02:57:20.978Z,2.25
2023-04-01T02:59:47.754Z,4.78
2023-04-01T03:02:14.779Z,2.60
2023-04-01T03:04:41.224Z,2.22
2023-04-01T03:07:08.031Z,2.08
2023-04-01T03:09:34.402Z,5.45
2023-04-01T03:12:00.881Z,3.47
2023-04-01T03:14:27.220Z,2.28
2023-04-01T03:16:53.664Z,4.85
2023-04-01T03:19:20.374Z,3.85
2023-04-01T03:21:46.680Z,7.07
2023-04-01T03:24:13.104Z,2.63
2023-04-01T03:26:39.500Z,4.00
2023-04-01T03:29:05.847Z,5.18
2023-04-01T03:31:32.333Z,2.80
2023-04-01T03:33:58.731Z,2.97
2023-04-01T03:36:25.509Z,2.13
2023-04-01T03:38:51.898Z,3.47
2023-04-01T03:41:18.526Z,2.20
2023-04-01T03:43:45.338Z,2.72
2023-04-01T03:46:11.852Z,4.18
2023-04-01T03:48:38.299Z,2.90
2023-04-01T03:51:08.557Z,3.53
2023-04-01T03:53:34.941Z,3.33
2023-04-01T03:56:05.855Z,4.47
2023-04-01T03:58:32.294Z,7.13
2023-04-01T04:00:58.804Z,3.17
2023-04-01T04:03:25.441Z,3.17
2023-04-01T04:05:51.818Z,4.28
2023-04-01T04:08:18.958Z,3.35
2023-04-01T04:10:45.706Z,4.45
2023-04-01T04:13:12.066Z,3.95
2023-04-01T04:15:39.224Z,3.33
2023-04-01T04:18:05.841Z,1.73
2023-04-01T04:20:32.240Z,4.85
2023-04-01T04:22:58.716Z,2.25
2023-04-01T04:25:25.216Z,2.35
2023-04-01T04:27:51.580Z,2.25
2023-04-01T04:30:18.038Z,3.50
2023-04-01T04:32:44.486Z,5.40
2023-04-01T04:35:10.967Z,4.55
2023-04-01T04:37:37.316Z,2.95
2023-04-01T04:40:03.936Z,2.90
2023-04-01T04:42:30.603Z,2.15
2023-04-01T04:44:56.933Z,3.55
2023-04-01T04:47:23.282Z,1.55
2023-04-01T04:49:49.706Z,2.30
2023-04-01T04:52:16.672Z,3.58
2023-04-01T04:54:43.009Z,3.85
2023-04-01T04:57:09.516Z,3.83
2023-04-01T04:59:36.137Z,3.63
2023-04-01T05:02:02.623Z,3.58
2023-04-01T05:04:29.025Z,5.43
2023-04-01T05:06:55.314Z,5.53
2023-04-01T05:09:21.734Z,3.88
2023-04-01T05:11:48.254Z,4.20
2023-04-01T05:14:16.551Z,2.88
2023-04-01T05:16:45.300Z,3.72
2023-04-01T05:19:11.685Z,5.07
2023-04-01T05:21:38.101Z,3.25
2023-04-01T05:24:04.652Z,5.43
2023-04-01T05:26:31.453Z,3.78
2023-04-01T05:28:57.820Z,4.65
2023-04-01T05:31:25.076Z,4.32
2023-04-01T05:33:51.646Z,3.88
2023-04-01T05:36:18.068Z,2.80
2023-04-01T05:38:48.563Z,4.85
2023-04-01T05:41:15.570Z,3.20
2023-04-01T05:43:42.935Z,4.45
2023-04-01T05:46:09.514Z,3.75
2023-04-01T05:48:36.204Z,3.78
2023-04-01T05:51:03.414Z,3.67
2023-04-01T05:53:29.910Z,3.88
2023-04-01T05:55:56.407Z,3.50
2023-04-01T05:58:22.788Z,3.42
2023-04-01T06:00:59.037Z,4.90
2023-04-01T06:03:29.120Z,3.70
2023-04-01T06:05:57.927Z,3.65
2023-04-01T06:08:25.552Z,3.60
2023-04-01T06:11:19.797Z,5.53
2023-04-01T06:13:49.345Z,2.95
2023-04-01T06:16:40.029Z,3.88
2023-04-01T06:19:33.158Z,3.35
2023-04-01T06:22:25.712Z,6.72
2023-04-01T06:25:22.530Z,3.30
2023-04-01T06:28:02.070Z,3.30
2023-04-01T06:30:28.454Z,2.70
2023-04-01T06:33:07.100Z,4.38
2023-04-01T06:35:47.472Z,3.20
2023-04-01T06:38:29.230Z,4.45
2023-04-01T06:40:58.056Z,2.42
2023-04-01T06:43:42.717Z,1.73
2023-04-01T06:46:18.730Z,3.28
2023-04-01T06:49:30.676Z,3.72
2023-04-01T06:52:23.691Z,2.85
2023-04-01T06:55:02.192Z,4.70
2023-04-01T06:57:44.653Z,3.92
2023-04-01T07:00:45.496Z,1.98
2023-04-01T07:03:34.133Z,2.65
2023-04-01T07:06:06.478Z,1.35
2023-04-01T07:08:41.998Z,1.80
2023-04-01T07:11:15.672Z,1.60
2023-04-01T07:13:56.289Z,4.18
2023-04-01T07:16:33.581Z,1.52
2023-04-01T07:19:10.785Z,3.58
2023-04-01T07:21:42.848Z,2.85
2023-04-01T07:24:26.548Z,2.30
2023-04-01T07:26:57.794Z,2.03
2023-04-01T07:29:26.494Z,1.58
2023-04-01T07:32:23.421Z,1.60
2023-04-01T07:35:00.052Z,1.90
2023-04-01T07:37:38.194Z,1.77
2023-04-01T07:40:29.341Z,2.15
2023-04-01T07:43:33.810Z,1.33
2023-04-01T07:46:31.498Z,2.80
2023-04-01T07:49:17.782Z,1.95
2023-04-01T07:51:57.513Z,1.17
2023-04-01T07:54:34.712Z,1.27
2023-04-01T07:57:22.730Z,0.98
2023-04-01T08:00:02.785Z,2.10
2023-04-01T08:02:43.470Z,1.40
2023-04-01T08:05:34.530Z,1.83
2023-04-01T08:08:16.297Z,1.88
2023-04-01T08:10:54.740Z,2.33
2023-04-01T08:13:52.148Z,1.42
2023-04-01T08:16:30.800Z,1.83
2023-04-01T08:19:24.972Z,2.15
2023-04-01T08:21:59.042Z,2.50
2023-04-01T08:24:47.181Z,1.63
2023-04-01T08:27:24.007Z,3.65
2023-04-01T08:30:00.566Z,1.70
2023-04-01T08:32:33.712Z,2.35
2023-04-01T08:35:15.253Z,2.15
2023-04-01T08:37:43.039Z,1.33
2023-04-01T08:40:19.465Z,1.30
2023-04-01T08:43:06.790Z,2.97
2023-04-01T08:45:53.934Z,2.38
2023-04-01T08:48:30.500Z,1.83
2023-04-01T08:51:08.384Z,1.40
2023-04-01T08:54:01.438Z,1.70
2023-04-01T08:56:37.075Z,2.45
2023-04-01T08:59:48.285Z,2.05
2023-04-01T09:02:46.505Z,2.72
2023-04-01T09:05:48.442Z,1.50
2023-04-01T09:08:25.294Z,1.85
2023-04-01T09:11:03.497Z,1.98
2023-04-01T09:13:48.191Z,1.90
2023-04-01T09:16:40.490Z,1.60
2023-04-01T09:19:21.590Z,2.03
2023-04-01T09:22:00.229Z,1.55
2023-04-01T09:24:41.070Z,2.40
2023-04-01T09:27:29.386Z,1.05
2023-04-01T09:30:25.699Z,1.85
2023-04-01T09:33:08.502Z,1.42
2023-04-01T09:35:48.707Z,1.95
2023-04-01T09:38:28.488Z,2.60
2023-04-01T09:41:28.535Z,1.48
2023-04-01T09:44:12.198Z,1.52
2023-04-01T09:47:08.144Z,1.63
2023-04-01T09:49:49.440Z,2.22
2023-04-01T09:52:46.028Z,1.98
2023-04-01T09:55:15.683Z,1.67
2023-04-01T09:57:57.274Z,2.17
2023-04-01T10:00:58.098Z,2.63
2023-04-01T10:03:34.451Z,1.40
2023-04-01T10:06:19.141Z,3.00
2023-04-01T10:09:25.032Z,2.30
2023-04-01T10:12:17.439Z,1.67
2023-04-01T10:15:12.843Z,1.40
2023-04-01T10:18:05.959Z,2.72
2023-04-01T10:20:47.317Z,2.85
2023-04-01T10:23:29.043Z,1.38
2023-04-01T10:26:07.615Z,1.40
2023-04-01T10:28:56.842Z,0.80
2023-04-01T10:31:50.793Z,2.58
2023-04-01T10:34:43.133Z,1.65
2023-04-01T10:37:18.300Z,1.48
2023-04-01T10:39:53.044Z,2.03
2023-04-01T10:42:36.827Z,1.33
2023-04-01T10:45:41.473Z,1.25
2023-04-01T10:48:14.205Z,1.77
2023-04-01T10:50:52.742Z,1.33
2023-04-01T10:53:55.202Z,1.02
2023-04-01T10:56:41.586Z,1.58
2023-04-01T10:59:29.917Z,3.05
2023-04-01T11:02:21.421Z,1.20
2023-04-01T11:05:32.410Z,1.42
2023-04-01T11:08:30.677Z,0.80
2023-04-01T11:11:35.670Z,1.67
2023-04-01T11:14:05.330Z,1.30
2023-04-01T11:16:59.134Z,1.30
2023-04-01T11:20:00.798Z,2.35
2023-04-01T11:22:46.791Z,1.08
2023-04-01T11:25:38.152Z,1.67
2023-04-01T11:28:55.740Z,1.65
2023-04-01T11:31:43.775Z,1.50
2023-04-01T11:34:40.764Z,1.48
2023-04-01T11:37:41.220Z,1.55
2023-04-01T11:40:12.375Z,1.88
2023-04-01T11:42:56.699Z,1.33
2023-04-01T11:46:00.915Z,1.58
2023-04-01T11:49:06.521Z,1.52
2023-04-01T11:51:47.886Z,0.85
2023-04-01T11:54:27.696Z,1.17
2023-04-01T11:57:17.854Z,1.45
2023-04-01T12:00:12.181Z,1.08
2023-04-01T12:03:07.941Z,1.42
2023-04-01T12:05:43.662Z,1.42
2023-04-01T12:08:25.151Z,0.98
2023-04-01T12:11:04.210Z,0.85
2023-04-01T12:13:40.651Z,1.02
2023-04-01T12:16:26.361Z,1.10
2023-04-01T12:19:05.791Z,0.90
2023-04-01T12:21:44.145Z,1.05
2023-04-01T12:24:25.824Z,3.13
2023-04-01T12:27:39.051Z,1.33
2023-04-01T12:30:30.058Z,0.70
2023-04-01T12:33:19.520Z,1.13
2023-04-01T12:36:04.400Z,1.23
2023-04-01T12:38:49.124Z,1.15
2023-04-01T12:41:54.143Z,0.88
2023-04-01T12:44:36.467Z,0.70
2023-04-01T12:47:27.818Z,0.73
2023-04-01T12:50:20.631Z,0.65
2023-04-01T12:53:04.744Z,1.27
2023-04-01T12:55:34.251Z,1.77
2023-04-01T12:58:19.625Z,0.60
2023-04-01T13:01:04.407Z,1.35
2023-04-01T13:03:49.611Z,1.40
2023-04-01T13:06:34.581Z,2.85
2023-04-01T13:09:17.736Z,1.33
2023-04-01T13:12:01.849Z,1.15
2023-04-01T13:14:38.284Z,1.10
2023-04-01T13:17:30.564Z,1.40
2023-04-01T13:20:17.568Z,3.25
2023-04-01T13:23:08.400Z,1.77
2023-04-01T13:25:44.924Z,0.70
2023-04-01T13:28:26.729Z,2.60
2023-04-01T13:31:12.903Z,1.42
2023-04-01T13:33:57.217Z,1.45
2023-04-01T13:36:35.436Z,1.38
2023-04-01T13:39:16.053Z,0.95
2023-04-01T13:41:54.459Z,1.63
2023-04-01T13:44:47.404Z,0.63
2023-04-01T13:47:22.873Z,0.80
2023-04-01T13:50:27.620Z,1.38
2023-04-01T13:52:59.978Z,1.27
2023-04-01T13:55:51.463Z,2.22
2023-04-01T13:58:20.676Z,1.70
2023-04-01T14:03:39.622Z,1.25
2023-04-01T14:06:32.422Z,1.85
2023-04-01T14:09:30.639Z,1.27
2023-04-01T14:12:34.437Z,1.20
2023-04-01T14:15:23.441Z,1.33
2023-04-01T14:17:59.022Z,0.70
2023-04-01T14:20:52.804Z,0.85
2023-04-01T14:23:32.538Z,1.20
2023-04-01T14:26:11.018Z,1.13
2023-04-01T14:28:54.646Z,1.40
2023-04-01T14:31:29.918Z,1.58
2023-04-01T14:34:11.852Z,1.33
2023-04-01T14:37:08.306Z,1.40
2023-04-01T14:39:51.659Z,1.50
2023-04-01T14:42:32.138Z,1.40
2023-04-01T14:45:36.486Z,1.45
2023-04-01T14:48:25.328Z,2.22
2023-04-01T14:53:23.747Z,1.02
2023-04-01T14:55:56.520Z,1.27
2023-04-01T14:58:28.209Z,1.17
2023-04-01T15:01:07.001Z,1.85
2023-04-01T15:04:04.230Z,1.63
2023-04-01T15:07:01.622Z,1.95
2023-04-01T15:09:28.024Z,1.48
2023-04-01T15:12:16.192Z,2.25
2023-04-01T15:14:55.045Z,1.98
2023-04-01T15:17:57.172Z,2.72
2023-04-01T15:20:48.185Z,1.63
2023-04-01T15:23:33.145Z,1.30
2023-04-01T15:26:20.777Z,1.90
2023-04-01T15:29:05.976Z,1.52
2023-04-01T15:31:47.417Z,1.70
2023-04-01T15:34:32.671Z,1.58
2023-04-01T15:37:21.734Z,1.92
2023-04-01T15:40:13.090Z,0.77
2023-04-01T15:43:03.949Z,1.60
2023-04-01T15:45:40.021Z,1.90
2023-04-01T15:48:33.948Z,1.20
2023-04-01T15:51:33.865Z,1.52
2023-04-01T15:54:32.644Z,1.48
2023-04-01T15:57:15.358Z,1.38
2023-04-01T15:59:58.168Z,1.13
2023-04-01T16:02:48.331Z,1.20
2023-04-01T16:06:01.990Z,0.93
2023-04-01T16:09:02.198Z,1.42
2023-04-01T16:11:42.020Z,1.10
2023-04-01T16:14:08.514Z,1.45
2023-04-01T16:17:06.851Z,1.27
2023-04-01T16:19:59.772Z,1.38
2023-04-01T16:22:33.513Z,1.15
2023-04-01T16:25:21.388Z,0.82
2023-04-01T16:27:57.908Z,1.85
2023-04-01T16:30:43.742Z,1.58
2023-04-01T16:33:23.520Z,1.63
2023-04-01T16:36:01.819Z,2.33
2023-04-01T16:38:32.002Z,1.30
2023-04-01T16:41:17.592Z,1.30
2023-04-01T16:43:55.536Z,1.42
2023-04-01T16:46:41.894Z,1.73
2023-04-01T16:49:24.740Z,1.52
2023-04-01T16:51:58.532Z,0.88
2023-04-01T16:54:47.745Z,1.30
2023-04-01T16:57:26.343Z,1.35
2023-04-01T17:00:28.374Z,0.70
2023-04-01T17:03:18.537Z,1.33
2023-04-01T17:06:07.137Z,1.77
2023-04-01T17:09:01.652Z,2.80
2023-04-01T17:11:45.561Z,1.55
2023-04-01T17:14:25.091Z,1.33
2023-04-01T17:16:57.391Z,1.33
2023-04-01T17:19:37.964Z,1.20
2023-04-01T17:22:32.141Z,1.00
2023-04-01T17:25:22.965Z,2.25
2023-04-01T17:28:16.942Z,1.13
2023-04-01T17:31:23.298Z,0.93
2023-04-01T17:34:04.379Z,1.42
2023-04-01T17:36:41.627Z,1.33
2023-04-01T17:39:41.298Z,1.23
2023-04-01T17:42:23.640Z,1.55
2023-04-01T17:45:23.371Z,1.45
2023-04-01T17:48:18.078Z,1.50
2023-04-01T17:51:21.347Z,1.23
2023-04-01T17:54:09.747Z,1.75
2023-04-01T17:56:45.645Z,2.00
2023-04-01T17:59:30.415Z,1.27
2023-04-01T18:02:25.000Z,1.38
2023-04-01T18:05:05.739Z,1.27
2023-04-01T18:07:47.958Z,0.82
2023-04-01T18:10:29.347Z,1.65
2023-04-01T18:13:33.618Z,2.00
2023-04-01T18:16:15.810Z,1.33
2023-04-01T18:21:43.229Z,1.83
2023-04-01T18:24:21.642Z,1.67
2023-04-01T18:27:02.800Z,1.90
2023-04-01T18:30:00.678Z,1.23
2023-04-01T18:32:37.485Z,1.88
2023-04-01T18:35:29.416Z,1.85
2023-04-01T18:38:19.228Z,1.70
2023-04-01T18:40:59.070Z,1.75
2023-04-01T18:43:40.773Z,1.65
2023-04-01T18:46:28.508Z,2.15
2023-04-01T18:49:09.285Z,1.30
2023-04-01T18:51:45.763Z,1.88
2023-04-01T18:54:14.825Z,1.77
2023-04-01T18:56:45.610Z,1.67
2023-04-01T18:59:20.921Z,2.00
2023-04-01T19:02:06.231Z,2.20
2023-04-01T19:04:40.084Z,2.10
2023-04-01T19:07:37.362Z,2.20
2023-04-01T19:10:58.914Z,1.67
2023-04-01T19:13:49.324Z,1.63
2023-04-01T19:16:34.124Z,2.42
2023-04-01T19:19:22.621Z,2.15
2023-04-01T19:21:57.915Z,2.22
2023-04-01T19:24:42.829Z,2.60
2023-04-01T19:27:33.120Z,2.03
2023-04-01T19:30:06.701Z,1.98
2023-04-01T19:32:47.265Z,2.25
2023-04-01T19:35:38.257Z,2.10
2023-04-01T19:38:06.436Z,1.88
2023-04-01T19:41:10.593Z,2.25
2023-04-01T19:43:41.913Z,1.65
2023-04-01T19:46:17.408Z,2.25
2023-04-01T19:49:05.298Z,2.30
2023-04-01T19:52:19.320Z,2.70
2023-04-01T19:55:04.452Z,1.98
2023-04-01T19:57:56.863Z,2.05
2023-04-01T20:00:30.981Z,1.23
2023-04-01T20:03:19.085Z,2.97
2023-04-01T20:05:57.960Z,2.10
2023-04-01T20:08:40.610Z,2.25
2023-04-01T20:11:19.816Z,1.75
2023-04-01T20:14:04.971Z,2.40
2023-04-01T20:16:57.220Z,1.50
2023-04-01T20:19:34.069Z,1.45
2023-04-01T20:22:03.860Z,3.22
2023-04-01T20:24:37.120Z,1.25
2023-04-01T20:27:08.920Z,2.38
2023-04-01T20:30:00.402Z,1.58
2023-04-01T20:32:52.013Z,2.55
2023-04-01T20:35:40.474Z,1.95
2023-04-01T20:38:34.517Z,2.22
2023-04-01T20:41:06.766Z,2.42
2023-04-01T20:43:58.997Z,2.38
2023-04-01T20:46:49.050Z,2.63
2023-04-01T20:49:33.588Z,2.15
2023-04-01T20:52:18.013Z,2.55
2023-04-01T20:55:04.203Z,2.45
2023-04-01T20:57:43.206Z,2.45
2023-04-01T21:00:25.323Z,2.70
2023-04-01T21:03:21.980Z,2.30
2023-04-01T21:05:58.933Z,1.70
2023-04-01T21:08:37.480Z,2.35
2023-04-01T21:11:30.117Z,2.50
2023-04-01T21:14:05.757Z,2.42
2023-04-01T21:16:56.840Z,1.70
2023-04-01T21:19:48.116Z,2.55
2023-04-01T21:23:01.625Z,2.00
2023-04-01T21:25:54.342Z,2.67
2023-04-01T21:28:36.527Z,2.88
2023-04-01T21:34:02.810Z,2.80
2023-04-01T21:36:57.135Z,2.70
2023-04-01T21:39:47.745Z,2.67
2023-04-01T21:42:37.293Z,1.85
2023-04-01T21:45:34.006Z,2.92
2023-04-01T21:48:18.890Z,3.15
2023-04-01T21:51:12.139Z,2.83
2023-04-01T21:53:47.639Z,2.95
2023-04-01T21:56:32.614Z,2.50
2023-04-01T21:59:14.037Z,3.22
2023-04-01T22:02:03.220Z,2.42
2023-04-01T22:04:48.727Z,2.92
2023-04-01T22:07:18.906Z,2.50
2023-04-01T22:10:16.712Z,2.25
2023-04-01T22:13:22.477Z,2.92
2023-04-01T22:16:18.085Z,3.38
2023-04-01T22:18:56.694Z,2.00
2023-04-01T22:21:32.558Z,4.10
2023-04-01T22:24:29.470Z,2.97
2023-04-01T22:27:37.789Z,2.85
2023-04-01T22:30:24.121Z,2.95
2023-04-01T22:32:57.720Z,1.75
2023-04-01T22:35:40.600Z,1.90
2023-04-01T22:38:37.597Z,2.55
2023-04-01T22:41:13.649Z,2.38
2023-04-01T22:43:45.831Z,4.43
2023-04-01T22:46:27.502Z,2.63
2023-04-01T22:49:17.476Z,1.73
2023-04-01T22:51:49.499Z,2.17
2023-04-01T22:54:28.667Z,2.40
2023-04-01T22:57:04.282Z,2.42
2023-04-01T22:59:46.248Z,2.20
2023-04-01T23:02:22.223Z,1.85
2023-04-01T23:04:55.992Z,2.33
2023-04-01T23:07:37.937Z,2.60
2023-04-01T23:10:13.239Z,2.60
2023-04-01T23:12:41.828Z,2.55
2023-04-01T23:15:14.081Z,2.33
2023-04-01T23:18:18.026Z,2.45
2023-04-01T23:20:53.625Z,2.30
2023-04-01T23:23:44.625Z,2.15
2023-04-01T23:26:19.516Z,2.60
2023-04-01T23:28:52.175Z,1.60
2023-04-01T23:31:32.505Z,2.88
2023-04-01T23:34:29.954Z,2.17
2023-04-01T23:36:59.911Z,3.38
2023-04-01T23:39:33.986Z,3.33
2023-04-01T23:42:07.778Z,3.35
2023-04-01T23:44:36.240Z,2.40
2023-04-01T23:47:04.429Z,2.95
2023-04-01T23:49:37.753Z,3.58
2023-04-01T23:52:12.914Z,3.05
2023-04-01T23:54:50.431Z,3.15
2023-04-01T23:57:22.603Z,2.33
